Terminal Aerodrome Forecast
Issued by NWS

Home | Current Version | Previous Version | Text Only | Print | Product List | Glossary Off
Versions: 1 2 3 4 5 6 7 8 9 10 11 12 13 14 15 16 17 18 19 20 21 22 23 24 25 26 27 28

000
FTUS43 KGRB 131137
TAFMTW
TAF
KMTW 131137Z 1312/1412 14007KT 5SM -SN SCT015 OVC030
      TEMPO 1312/1315 2SM -SN BKN015
     FM131500 11010KT 2SM -SN SCT007 OVC012
      TEMPO 1315/1317 1SM -SN OVC007
     FM131700 09012KT 1SM -SN SCT008 OVC018
      TEMPO 1317/1321 1/2SM SN BKN008
     FM132100 04012G20KT 1SM -SN SCT007 OVC015
     FM140200 35011G17KT 5SM -SHSN BKN030
     FM140600 34008KT P6SM SCT035=

USA.gov is the U.S. government's official web portal to all federal, state and local government web resources and services.